createdAt,value
2022-12-17T00:01:43.005Z,4.73
2022-12-17T00:04:28.708Z,6.00
2022-12-17T00:07:16.521Z,3.80
2022-12-17T00:10:02.336Z,4.90
2022-12-17T00:12:47.952Z,6.57
2022-12-17T00:15:33.504Z,5.10
2022-12-17T00:18:25.059Z,4.63
2022-12-17T00:21:12.278Z,5.07
2022-12-17T00:23:57.633Z,5.50
2022-12-17T00:26:43.317Z,4.70
2022-12-17T00:29:29.046Z,5.27
2022-12-17T00:32:14.440Z,5.53
2022-12-17T00:35:01.933Z,6.63
2022-12-17T00:37:47.544Z,6.70
2022-12-17T00:40:33.575Z,4.90
2022-12-17T00:43:19.899Z,9.47
2022-12-17T00:46:05.296Z,8.27
2022-12-17T00:48:51.510Z,17.30
2022-12-17T00:51:39.100Z,17.57
2022-12-17T00:54:24.481Z,21.17
2022-12-17T00:57:10.363Z,14.57
2022-12-17T00:59:56.493Z,12.60
2022-12-17T01:02:42.443Z,8.20
2022-12-17T01:05:28.972Z,8.07
2022-12-17T01:08:24.667Z,8.07
2022-12-17T01:11:10.020Z,6.83
2022-12-17T01:13:56.485Z,10.43
2022-12-17T01:16:41.511Z,4.93
2022-12-17T01:19:27.149Z,1.23
2022-12-17T01:22:12.740Z,1.30
2022-12-17T01:24:59.824Z,1.40
2022-12-17T01:27:45.469Z,1.07
2022-12-17T01:30:31.021Z,1.00
2022-12-17T01:33:20.690Z,2.30
2022-12-17T01:36:07.207Z,7.47
2022-12-17T01:38:52.813Z,8.03
2022-12-17T01:41:39.604Z,10.43
2022-12-17T01:45:03.572Z,6.73
2022-12-17T01:47:53.208Z,8.17
2022-12-17T01:50:43.716Z,8.03
2022-12-17T01:53:30.492Z,8.20
2022-12-17T01:56:17.088Z,8.53
2022-12-17T01:59:04.678Z,7.97
2022-12-17T02:01:50.272Z,5.23
2022-12-17T02:04:36.073Z,6.50
2022-12-17T02:07:35.850Z,5.77
2022-12-17T02:10:36.917Z,1.33
2022-12-17T02:13:30.899Z,1.20
2022-12-17T02:16:25.127Z,6.40
2022-12-17T02:19:16.418Z,5.87
2022-12-17T02:22:07.786Z,7.90
2022-12-17T02:25:12.673Z,8.83
2022-12-17T02:28:10.808Z,8.27
2022-12-17T02:30:57.287Z,0.73
2022-12-17T02:33:43.518Z,1.00
2022-12-17T02:36:29.116Z,0.97
2022-12-17T02:39:20.164Z,0.73
2022-12-17T02:42:09.173Z,4.27
2022-12-17T02:44:59.616Z,6.07
2022-12-17T02:47:46.737Z,4.43
2022-12-17T02:50:32.657Z,5.00
2022-12-17T02:53:20.811Z,7.80
2022-12-17T02:56:06.574Z,8.33
2022-12-17T02:58:52.109Z,7.07
2022-12-17T03:01:39.069Z,8.43
2022-12-17T03:04:25.017Z,8.03
2022-12-17T03:07:10.324Z,10.60
2022-12-17T03:09:55.160Z,8.63
2022-12-17T03:12:40.749Z,9.10
2022-12-17T03:15:26.702Z,4.73
2022-12-17T03:18:14.258Z,4.33
2022-12-17T03:20:59.673Z,5.90
2022-12-17T03:23:45.302Z,4.33
2022-12-17T03:26:30.589Z,4.53
2022-12-17T03:29:16.391Z,6.50
2022-12-17T03:32:01.954Z,0.83
2022-12-17T03:34:48.588Z,1.00
2022-12-17T03:37:34.295Z,0.70
2022-12-17T03:40:19.925Z,0.93
2022-12-17T03:43:05.676Z,1.20
2022-12-17T03:45:51.396Z,7.03
2022-12-17T03:48:33.408Z,8.03
2022-12-17T03:51:20.718Z,6.77
2022-12-17T03:54:06.629Z,9.87
2022-12-17T03:56:52.650Z,9.83
2022-12-17T03:59:38.704Z,11.80
2022-12-17T04:02:24.517Z,10.10
2022-12-17T04:05:13.795Z,7.80
2022-12-17T04:08:03.412Z,10.87
2022-12-17T04:10:49.088Z,10.57
2022-12-17T04:13:40.266Z,9.83
2022-12-17T04:16:26.521Z,14.00
2022-12-17T04:19:12.574Z,7.37
2022-12-17T04:21:57.971Z,1.57
2022-12-17T04:24:44.779Z,1.07
2022-12-17T04:27:30.496Z,1.27
2022-12-17T04:30:16.099Z,0.70
2022-12-17T04:33:01.732Z,1.00
2022-12-17T04:35:47.321Z,0.40
2022-12-17T04:38:32.588Z,5.83
2022-12-17T04:41:19.459Z,1.20
2022-12-17T04:44:04.936Z,0.80
2022-12-17T04:46:50.773Z,0.73
2022-12-17T04:49:36.434Z,0.90
2022-12-17T04:52:22.210Z,0.90
2022-12-17T04:55:07.615Z,1.03
2022-12-17T04:57:54.407Z,8.03
2022-12-17T05:00:40.011Z,10.30
2022-12-17T05:03:29.157Z,9.17
2022-12-17T05:06:14.695Z,10.73
2022-12-17T05:09:00.419Z,12.83
2022-12-17T05:11:45.957Z,12.43
2022-12-17T05:14:31.821Z,12.07
2022-12-17T05:17:17.440Z,1.00
2022-12-17T05:20:03.108Z,1.17
2022-12-17T05:22:50.959Z,0.83
2022-12-17T05:25:36.506Z,2.33
2022-12-17T05:28:21.086Z,10.33
2022-12-17T05:31:12.304Z,11.43
2022-12-17T05:33:58.037Z,12.77
2022-12-17T05:36:43.967Z,10.63
2022-12-17T05:39:29.391Z,14.57
2022-12-17T05:42:15.104Z,11.70
2022-12-17T05:45:00.661Z,11.13
2022-12-17T05:47:47.464Z,10.53
2022-12-17T05:50:29.472Z,11.87
2022-12-17T05:53:20.393Z,11.13
2022-12-17T05:56:08.194Z,10.60
2022-12-17T05:58:53.886Z,11.00
2022-12-17T06:01:39.343Z,9.00
2022-12-17T06:04:27.755Z,10.67
2022-12-17T06:07:18.895Z,0.90
2022-12-17T06:10:04.520Z,6.83
2022-12-17T06:12:50.136Z,10.43
2022-12-17T06:15:35.907Z,10.13
2022-12-17T06:18:21.552Z,11.47
2022-12-17T06:21:10.682Z,12.37
2022-12-17T06:23:56.225Z,11.20
2022-12-17T06:26:41.544Z,10.70
2022-12-17T06:29:32.331Z,10.53
2022-12-17T06:32:17.994Z,15.23
2022-12-17T06:35:03.493Z,12.10
2022-12-17T06:37:49.377Z,1.40
2022-12-17T06:40:35.492Z,0.80
2022-12-17T06:43:20.980Z,1.10
2022-12-17T06:46:06.675Z,1.23
2022-12-17T06:48:52.309Z,0.67
2022-12-17T06:51:38.020Z,1.40
2022-12-17T06:54:24.967Z,0.80
2022-12-17T06:57:10.932Z,14.40
2022-12-17T06:59:56.571Z,32.37
2022-12-17T07:02:42.003Z,0.90
2022-12-17T07:05:27.640Z,1.27
2022-12-17T07:08:16.258Z,55.23
2022-12-17T07:11:03.485Z,48.33
2022-12-17T07:13:48.807Z,22.37
2022-12-17T07:16:34.433Z,14.47
2022-12-17T07:19:25.278Z,8.87
2022-12-17T07:22:12.705Z,1.07
2022-12-17T07:24:58.260Z,1.00
2022-12-17T07:27:45.116Z,12.03
2022-12-17T07:30:31.400Z,10.63
2022-12-17T07:33:18.431Z,11.70
2022-12-17T07:36:04.046Z,18.47
2022-12-17T07:38:46.096Z,13.57
2022-12-17T07:41:31.689Z,11.23
2022-12-17T07:44:18.285Z,11.43
2022-12-17T07:47:03.806Z,12.17
2022-12-17T07:49:49.520Z,13.80
2022-12-17T07:52:35.009Z,17.20
2022-12-17T07:55:20.692Z,16.60
2022-12-17T07:58:06.121Z,14.87
2022-12-17T08:00:52.858Z,10.93
2022-12-17T08:03:38.814Z,0.33
2022-12-17T08:06:25.150Z,7.47
2022-12-17T08:09:10.634Z,13.57
2022-12-17T08:11:56.121Z,14.57
2022-12-17T08:14:41.808Z,13.53
2022-12-17T08:17:28.391Z,12.60
2022-12-17T08:20:13.814Z,11.63
2022-12-17T08:22:59.746Z,17.83
2022-12-17T08:25:45.157Z,17.47
2022-12-17T08:31:33.194Z,14.50
2022-12-17T08:34:20.042Z,12.10
2022-12-17T08:37:05.637Z,7.23
2022-12-17T08:39:51.351Z,11.83
2022-12-17T08:42:36.725Z,8.93
2022-12-17T08:45:22.771Z,12.03
2022-12-17T08:48:08.309Z,0.27
2022-12-17T08:50:54.931Z,10.57
2022-12-17T08:53:40.791Z,11.03
2022-12-17T08:56:26.652Z,12.03
2022-12-17T08:59:17.560Z,10.67
2022-12-17T09:02:03.440Z,15.13
2022-12-17T09:04:49.325Z,13.50
2022-12-17T09:07:35.993Z,16.13
2022-12-17T09:10:22.084Z,14.10
2022-12-17T09:13:08.015Z,12.37
2022-12-17T09:15:53.367Z,13.23
2022-12-17T09:18:35.863Z,12.47
2022-12-17T09:21:21.570Z,11.97
2022-12-17T09:24:08.319Z,15.93
2022-12-17T09:26:53.568Z,14.70
2022-12-17T09:29:39.297Z,13.07
2022-12-17T09:32:25.102Z,13.37
2022-12-17T09:35:10.535Z,11.80
2022-12-17T09:37:56.145Z,10.60
2022-12-17T09:40:44.030Z,11.63
2022-12-17T09:43:40.262Z,12.43
2022-12-17T09:46:33.626Z,9.23
2022-12-17T09:49:22.155Z,19.73
2022-12-17T09:52:08.029Z,53.97
2022-12-17T09:55:01.353Z,12.80
2022-12-17T09:57:53.687Z,13.80
2022-12-17T10:00:42.094Z,12.40
2022-12-17T10:03:31.769Z,13.20
2022-12-17T10:06:23.041Z,12.83
2022-12-17T10:09:14.720Z,14.47
2022-12-17T10:12:00.393Z,15.13
2022-12-17T10:14:49.853Z,13.80
2022-12-17T10:17:37.361Z,16.80
2022-12-17T10:20:37.079Z,14.93
2022-12-17T10:23:22.617Z,13.80
2022-12-17T10:26:13.728Z,14.27
2022-12-17T10:29:00.041Z,11.83
2022-12-17T10:31:49.143Z,13.90
2022-12-17T10:34:37.270Z,13.83
2022-12-17T10:37:24.422Z,15.30
2022-12-17T10:40:15.090Z,12.27
2022-12-17T10:43:01.433Z,15.77
2022-12-17T10:45:49.242Z,15.83
2022-12-17T10:48:42.195Z,17.63
2022-12-17T10:51:38.549Z,34.93
2022-12-17T10:54:39.998Z,26.03
2022-12-17T10:57:42.696Z,18.20
2022-12-17T11:00:49.826Z,15.57
2022-12-17T11:03:57.727Z,15.83
2022-12-17T11:06:47.460Z,19.10
2022-12-17T11:09:40.024Z,17.40
2022-12-17T11:12:30.880Z,16.00
2022-12-17T11:15:22.785Z,16.57
2022-12-17T11:18:11.537Z,14.50
2022-12-17T11:21:05.968Z,14.53
2022-12-17T11:23:55.011Z,16.90
2022-12-17T11:26:43.690Z,13.97
2022-12-17T11:29:31.137Z,15.73
2022-12-17T11:32:36.662Z,15.87
2022-12-17T11:35:28.163Z,17.67
2022-12-17T11:38:22.877Z,19.80
2022-12-17T11:41:13.236Z,14.47
2022-12-17T11:44:09.263Z,19.17
2022-12-17T11:47:07.548Z,16.20
2022-12-17T11:50:03.787Z,16.00
2022-12-17T11:52:56.937Z,15.90
2022-12-17T11:55:53.503Z,16.60
2022-12-17T11:58:46.595Z,16.17
2022-12-17T12:01:42.318Z,18.20
2022-12-17T12:04:39.606Z,18.03
2022-12-17T12:07:34.682Z,19.60
2022-12-17T12:10:24.774Z,18.97
2022-12-17T12:13:22.669Z,19.90
2022-12-17T12:16:18.957Z,16.90
2022-12-17T12:19:14.989Z,18.80
2022-12-17T12:22:10.105Z,17.03
2022-12-17T12:25:18.539Z,18.27
2022-12-17T12:28:18.490Z,21.87
2022-12-17T12:31:13.618Z,19.77
2022-12-17T12:34:06.090Z,20.03
2022-12-17T12:36:53.247Z,20.37
2022-12-17T12:39:45.404Z,21.37
2022-12-17T12:42:33.999Z,17.70
2022-12-17T12:45:26.411Z,19.23
2022-12-17T12:48:17.458Z,20.47
2022-12-17T12:51:10.687Z,21.63
2022-12-17T12:53:56.276Z,20.03
2022-12-17T12:56:46.898Z,27.90
2022-12-17T12:59:44.879Z,24.73
2022-12-17T13:02:46.370Z,20.40
2022-12-17T13:05:35.776Z,18.60
2022-12-17T13:08:18.767Z,22.33
2022-12-17T13:10:47.291Z,18.00
2022-12-17T13:13:27.013Z,17.10
2022-12-17T13:15:58.638Z,20.07
2022-12-17T13:18:33.165Z,22.77
2022-12-17T13:21:03.052Z,22.23
2022-12-17T13:23:34.485Z,18.50
2022-12-17T13:26:17.003Z,21.47
2022-12-17T13:28:49.992Z,19.60
2022-12-17T13:31:28.714Z,19.67
2022-12-17T13:34:06.421Z,20.97
2022-12-17T13:36:42.085Z,21.80
2022-12-17T13:39:24.719Z,18.60
2022-12-17T13:41:55.978Z,19.87
2022-12-17T13:44:26.501Z,20.03
2022-12-17T13:46:55.568Z,18.70
2022-12-17T13:49:27.106Z,18.47
2022-12-17T13:52:11.593Z,20.27
2022-12-17T13:54:40.203Z,19.93
2022-12-17T13:57:10.650Z,20.43
2022-12-17T13:59:39.663Z,20.53
2022-12-17T14:02:07.844Z,18.13
2022-12-17T14:04:37.411Z,20.23
2022-12-17T14:07:07.083Z,22.27
2022-12-17T14:09:38.299Z,20.40
2022-12-17T14:12:23.660Z,21.27
2022-12-17T14:14:56.034Z,18.37
2022-12-17T14:17:25.708Z,20.40
2022-12-17T14:20:06.043Z,20.50
2022-12-17T14:22:37.452Z,21.77
2022-12-17T14:25:08.207Z,21.90
2022-12-17T14:27:38.206Z,23.17
2022-12-17T14:30:24.122Z,23.30
2022-12-17T14:32:52.712Z,25.53
2022-12-17T14:35:30.952Z,22.37
2022-12-17T14:37:59.069Z,22.53
2022-12-17T14:40:28.004Z,31.30
2022-12-17T14:43:01.179Z,43.23
2022-12-17T14:45:30.221Z,38.97
2022-12-17T14:48:00.352Z,47.40
2022-12-17T14:50:33.827Z,38.07
2022-12-17T14:53:03.931Z,34.67
2022-12-17T14:55:37.741Z,130.23
2022-12-17T14:58:23.601Z,30.83
2022-12-17T15:00:56.558Z,30.87
2022-12-17T15:03:28.740Z,31.07
2022-12-17T15:06:02.293Z,30.90
2022-12-17T15:08:33.519Z,42.43
2022-12-17T15:11:01.834Z,39.87
2022-12-17T15:13:30.360Z,37.27
2022-12-17T15:15:58.511Z,36.67
2022-12-17T15:18:26.705Z,69.70
2022-12-17T15:20:54.854Z,42.27
2022-12-17T15:23:25.289Z,31.20
2022-12-17T15:25:54.896Z,32.97
2022-12-17T15:28:24.000Z,51.47
2022-12-17T15:30:52.173Z,44.37
2022-12-17T15:33:20.440Z,43.10
2022-12-17T15:35:48.636Z,43.07
2022-12-17T15:38:16.881Z,42.17
2022-12-17T15:40:46.326Z,42.17
2022-12-17T15:43:13.784Z,43.10
2022-12-17T15:45:43.410Z,38.07
2022-12-17T15:48:12.243Z,42.80
2022-12-17T15:50:40.704Z,40.57
2022-12-17T15:53:09.339Z,38.90
2022-12-17T15:55:37.750Z,37.10
2022-12-17T15:58:08.112Z,37.20
2022-12-17T16:00:36.554Z,37.97
2022-12-17T16:03:05.051Z,43.37
2022-12-17T16:05:33.316Z,44.77
2022-12-17T16:08:02.733Z,351.80
2022-12-17T16:10:31.334Z,230.17
2022-12-17T16:12:59.618Z,96.13
2022-12-17T16:15:29.219Z,46.67
2022-12-17T16:17:57.461Z,38.17
2022-12-17T16:20:25.787Z,44.93
2022-12-17T16:22:54.431Z,35.53
2022-12-17T16:25:22.514Z,31.93
2022-12-17T16:27:50.574Z,23.33
2022-12-17T16:30:18.847Z,22.03
2022-12-17T16:32:48.374Z,20.23
2022-12-17T16:35:16.720Z,18.83
2022-12-17T16:37:44.800Z,15.57
2022-12-17T16:40:13.434Z,16.87
2022-12-17T16:42:41.614Z,14.77
2022-12-17T16:45:10.574Z,14.70
2022-12-17T16:47:38.659Z,17.23
2022-12-17T16:50:08.700Z,15.67
2022-12-17T16:52:36.808Z,62.60
2022-12-17T16:55:05.142Z,67.00
2022-12-17T16:57:33.288Z,56.27
2022-12-17T17:00:01.386Z,49.07
2022-12-17T17:02:29.577Z,69.67
2022-12-17T17:04:57.788Z,68.77
2022-12-17T17:07:27.244Z,111.73
2022-12-17T17:10:02.707Z,77.53
2022-12-17T17:12:31.077Z,64.10
2022-12-17T17:14:59.187Z,58.60
2022-12-17T17:17:54.014Z,64.50
2022-12-17T17:20:15.950Z,70.63
2022-12-17T17:22:45.404Z,62.63
2022-12-17T17:25:13.528Z,38.13
2022-12-17T17:27:41.595Z,28.83
2022-12-17T17:30:10.983Z,19.63
2022-12-17T17:32:39.086Z,13.50
2022-12-17T17:35:07.889Z,12.07
2022-12-17T17:37:35.994Z,10.57
2022-12-17T17:40:06.247Z,11.07
2022-12-17T17:42:34.339Z,9.80
2022-12-17T17:45:03.423Z,7.20
2022-12-17T17:47:31.912Z,5.77
2022-12-17T17:50:00.109Z,5.47
2022-12-17T17:52:28.248Z,5.73
2022-12-17T17:54:56.348Z,9.83
2022-12-17T17:57:25.825Z,6.53
2022-12-17T17:59:53.917Z,11.40
2022-12-17T18:02:22.087Z,13.53
2022-12-17T18:04:50.255Z,12.37
2022-12-17T18:07:26.607Z,14.60
2022-12-17T18:09:55.531Z,9.13
2022-12-17T18:12:42.832Z,9.27
2022-12-17T18:15:14.856Z,10.17
2022-12-17T18:17:43.465Z,15.17
2022-12-17T18:20:12.593Z,12.07
2022-12-17T18:22:41.078Z,12.17
2022-12-17T18:25:10.432Z,12.70
2022-12-17T18:27:40.020Z,10.90
2022-12-17T18:30:09.028Z,12.37
2022-12-17T18:32:37.143Z,9.10
2022-12-17T18:35:05.600Z,10.07
2022-12-17T18:37:33.723Z,11.53
2022-12-17T18:40:01.861Z,12.37
2022-12-17T18:42:47.514Z,8.33
2022-12-17T18:45:17.206Z,9.13
2022-12-17T18:47:45.290Z,13.60
2022-12-17T18:50:14.034Z,12.07
2022-12-17T18:52:42.149Z,10.87
2022-12-17T18:55:10.357Z,13.77
2022-12-17T18:57:38.416Z,12.40
2022-12-17T19:00:08.073Z,12.37
2022-12-17T19:02:37.755Z,11.20
2022-12-17T19:05:06.335Z,18.70
2022-12-17T19:07:34.447Z,13.13
2022-12-17T19:10:02.580Z,13.03
2022-12-17T19:12:30.656Z,11.00
2022-12-17T19:14:58.725Z,10.27
2022-12-17T19:17:26.901Z,10.37
2022-12-17T19:19:56.421Z,10.90
2022-12-17T19:22:24.472Z,14.43
2022-12-17T19:24:52.577Z,14.67
2022-12-17T19:27:20.627Z,16.70
2022-12-17T19:29:49.899Z,12.67
2022-12-17T19:32:18.489Z,18.13
2022-12-17T19:34:46.598Z,23.70
2022-12-17T19:37:16.084Z,18.40
2022-12-17T19:39:44.166Z,17.10
2022-12-17T19:42:24.773Z,18.67
2022-12-17T19:44:53.783Z,20.27
2022-12-17T19:47:22.525Z,21.37
2022-12-17T19:49:50.667Z,21.77
2022-12-17T19:52:20.137Z,20.20
2022-12-17T19:54:48.219Z,19.53
2022-12-17T19:57:16.311Z,20.60
2022-12-17T19:59:44.419Z,21.37
2022-12-17T20:02:12.743Z,27.10
2022-12-17T20:04:40.947Z,32.77
2022-12-17T20:07:08.958Z,30.60
2022-12-17T20:09:38.627Z,41.90
2022-12-17T20:12:07.218Z,27.53
2022-12-17T20:14:36.090Z,36.63
2022-12-17T20:17:05.055Z,48.47
2022-12-17T20:19:34.930Z,64.17
2022-12-17T20:22:05.460Z,44.97
2022-12-17T20:24:33.683Z,47.30
2022-12-17T20:27:03.489Z,40.60
2022-12-17T20:29:31.731Z,43.53
2022-12-17T20:32:00.262Z,34.87
2022-12-17T20:34:28.472Z,33.03
2022-12-17T20:36:56.543Z,26.30
2022-12-17T20:39:27.719Z,23.47
2022-12-17T20:41:56.956Z,27.20
2022-12-17T20:44:26.484Z,22.17
2022-12-17T20:46:54.658Z,23.43
2022-12-17T20:49:22.788Z,24.50
2022-12-17T20:51:50.894Z,25.87
2022-12-17T20:54:19.221Z,28.10
2022-12-17T20:56:47.342Z,26.60
2022-12-17T20:59:17.571Z,25.43
2022-12-17T21:01:52.817Z,25.43
2022-12-17T21:04:22.458Z,25.50
2022-12-17T21:06:50.676Z,27.33
2022-12-17T21:09:20.872Z,28.90
2022-12-17T21:11:49.380Z,27.77
2022-12-17T21:14:19.319Z,39.43
2022-12-17T21:16:49.405Z,29.23
2022-12-17T21:19:20.197Z,30.63
2022-12-17T21:21:48.563Z,38.93
2022-12-17T21:24:20.406Z,28.00
2022-12-17T21:26:48.940Z,25.90
2022-12-17T21:29:18.416Z,22.90
2022-12-17T21:31:49.685Z,24.37
2022-12-17T21:34:21.327Z,26.20
2022-12-17T21:36:49.930Z,27.37
2022-12-17T21:39:18.962Z,27.90
2022-12-17T21:42:08.030Z,25.90
2022-12-17T21:44:36.991Z,25.60
2022-12-17T21:47:06.484Z,24.43
2022-12-17T21:49:34.535Z,24.57
2022-12-17T21:52:03.281Z,25.10
2022-12-17T21:54:31.611Z,25.43
2022-12-17T21:56:59.785Z,28.87
2022-12-17T21:59:27.952Z,22.47
2022-12-17T22:01:57.562Z,28.00
2022-12-17T22:04:28.699Z,23.27
2022-12-17T22:07:00.157Z,25.57
2022-12-17T22:10:19.387Z,25.20
2022-12-17T22:12:45.729Z,25.00
2022-12-17T22:15:13.850Z,24.30
2022-12-17T22:17:43.252Z,26.10
2022-12-17T22:20:13.516Z,26.53
2022-12-17T22:22:41.878Z,24.47
2022-12-17T22:25:12.106Z,23.17
2022-12-17T22:27:41.173Z,22.63
2022-12-17T22:30:31.397Z,25.80
2022-12-17T22:33:06.044Z,21.60
2022-12-17T22:37:40.681Z,24.30
2022-12-17T22:40:52.850Z,25.70
2022-12-17T22:44:34.122Z,21.17
2022-12-17T22:44:42.079Z,21.73
2022-12-17T22:47:16.618Z,20.13
2022-12-17T22:49:44.793Z,24.27
2022-12-17T22:52:14.262Z,28.30
2022-12-17T22:54:45.626Z,24.27
2022-12-17T22:57:36.398Z,26.97
2022-12-17T23:00:02.457Z,23.90
2022-12-17T23:02:30.577Z,28.17
2022-12-17T23:04:58.650Z,26.23
2022-12-17T23:07:31.750Z,23.67
2022-12-17T23:10:00.230Z,22.67
2022-12-17T23:12:45.846Z,24.77
2022-12-17T23:15:13.948Z,28.73
2022-12-17T23:17:42.001Z,27.07
2022-12-17T23:20:11.274Z,26.10
2022-12-17T23:22:40.705Z,25.37
2022-12-17T23:25:09.571Z,25.33
2022-12-17T23:27:37.679Z,23.97
2022-12-17T23:30:07.649Z,23.00
2022-12-17T23:32:35.840Z,23.97
2022-12-17T23:35:04.015Z,25.00
2022-12-17T23:37:38.047Z,24.13
2022-12-17T23:40:10.551Z,27.93
2022-12-17T23:42:38.976Z,21.17
2022-12-17T23:45:08.725Z,25.47
2022-12-17T23:47:36.798Z,23.30
2022-12-17T23:50:05.880Z,24.53
2022-12-17T23:52:33.915Z,27.53
2022-12-17T23:55:02.113Z,25.53
2022-12-17T23:57:31.597Z,28.33
2022-12-17T23:59:59.665Z,26.20
